Time;durP1;ratioP1;P1;durP2;ratioP2;P2;SDS_P1;SDS_P2;PMS_P1;PMS_P2;Temp;Humidity;BMP_temperature;BMP_pressure;BME280_temperature;BME280_humidity;BME280_pressure;Samples;Min_cycle;Max_cycle;Signal;HPM_P1;HPM_P2
2021/11/04 00:01:44;;;;;;;10.48;7.00;;;11.20;99.90;;;;;;5018787;28;20266;-58
2021/11/04 00:04:11;;;;;;;10.65;7.13;;;11.10;99.90;;;;;;5012510;28;20259;-52
2021/11/04 00:06:38;;;;;;;8.68;6.43;;;11.00;99.90;;;;;;5013168;28;20263;-57
2021/11/04 00:09:05;;;;;;;14.98;6.80;;;10.90;99.90;;;;;;5019912;28;20243;-56
2021/11/04 00:11:32;;;;;;;15.63;9.13;;;10.70;99.90;;;;;;5020470;28;20207;-54
2021/11/04 00:14:00;;;;;;;11.15;7.00;;;10.70;99.90;;;;;;5023479;28;20208;-51
2021/11/04 00:16:27;;;;;;;8.07;7.28;;;10.70;99.90;;;;;;5021048;28;20218;-53
2021/11/04 00:18:54;;;;;;;9.50;8.13;;;10.70;99.90;;;;;;5007726;28;20271;-53
2021/11/04 00:21:21;;;;;;;13.27;8.77;;;10.60;99.90;;;;;;5019713;28;20265;-56
2021/11/04 00:23:51;;;;;;;11.93;9.27;;;10.40;99.90;;;;;;5017767;28;20247;-52
2021/11/04 00:26:18;;;;;;;9.25;8.35;;;10.40;99.90;;;;;;5014640;28;20208;-54
2021/11/04 00:28:45;;;;;;;13.55;9.07;;;10.40;99.90;;;;;;5011724;28;20241;-54
2021/11/04 00:31:12;;;;;;;13.23;8.88;;;10.30;99.90;;;;;;5027814;28;20198;-52
2021/11/04 00:33:41;;;;;;;10.10;7.82;;;10.30;99.90;;;;;;5026848;28;20238;-58
2021/11/04 00:36:08;;;;;;;11.57;10.48;;;10.20;99.90;;;;;;5014367;28;20230;-57
2021/11/04 00:38:36;;;;;;;13.10;8.32;;;10.20;99.90;;;;;;5021173;28;20402;-51
2021/11/04 00:41:03;;;;;;;10.55;7.85;;;10.20;99.90;;;;;;5020021;28;20394;-50
2021/11/04 00:43:30;;;;;;;17.08;10.55;;;10.10;99.90;;;;;;5009071;28;20261;-52
2021/11/04 00:45:57;;;;;;;14.98;10.68;;;10.10;99.90;;;;;;5012995;28;20202;-56
2021/11/04 00:48:25;;;;;;;17.13;9.80;;;10.10;99.90;;;;;;5006617;28;20233;-54
2021/11/04 00:50:52;;;;;;;13.40;10.32;;;10.10;99.90;;;;;;5018131;28;20201;-54
2021/11/04 00:53:19;;;;;;;15.45;10.50;;;10.10;99.90;;;;;;5005997;28;20500;-56
2021/11/04 00:55:49;;;;;;;15.68;10.50;;;10.00;99.90;;;;;;5008031;28;20211;-52
2021/11/04 00:58:16;;;;;;;12.43;10.20;;;9.90;99.90;;;;;;5021646;28;20217;-58
2021/11/04 01:00:44;;;;;;;17.60;11.38;;;9.90;99.90;;;;;;5020739;28;20226;-55
2021/11/04 01:03:12;;;;;;;15.45;10.90;;;9.90;99.90;;;;;;5009317;28;20248;-57
2021/11/04 01:05:39;;;;;;;15.38;11.50;;;9.90;99.90;;;;;;5014517;28;20202;-53
2021/11/04 01:08:06;;;;;;;16.77;13.95;;;9.90;99.90;;;;;;5021239;28;20233;-58
2021/11/04 01:10:33;;;;;;;18.05;13.68;;;9.90;99.90;;;;;;5021279;28;20244;-60
2021/11/04 01:13:01;;;;;;;21.80;17.77;;;10.00;99.90;;;;;;5012657;28;20205;-55
2021/11/04 01:15:28;;;;;;;27.85;21.98;;;10.00;99.90;;;;;;5017622;28;20291;-52
2021/11/04 01:17:55;;;;;;;25.85;22.85;;;10.00;99.90;;;;;;5021172;28;20288;-56
2021/11/04 01:20:22;;;;;;;29.40;22.30;;;10.00;99.90;;;;;;5015582;28;20206;-53
2021/11/04 01:22:50;;;;;;;28.63;22.23;;;10.00;99.90;;;;;;5016541;28;20272;-52
2021/11/04 01:25:18;;;;;;;24.08;20.45;;;9.90;99.90;;;;;;5015847;28;20261;-52
2021/11/04 01:27:45;;;;;;;25.15;20.52;;;9.90;99.90;;;;;;5005862;28;20303;-54
2021/11/04 01:30:13;;;;;;;30.50;23.25;;;10.00;99.90;;;;;;5013788;28;20218;-53
2021/11/04 01:32:40;;;;;;;25.88;19.02;;;10.00;99.90;;;;;;5011214;28;20435;-53
2021/11/04 01:35:08;;;;;;;24.98;20.80;;;10.00;99.90;;;;;;5011498;28;20253;-53
2021/11/04 01:37:35;;;;;;;22.02;19.63;;;10.10;99.90;;;;;;5009489;28;20228;-55
2021/11/04 01:40:05;;;;;;;23.40;17.33;;;10.10;99.90;;;;;;5011837;28;20202;-58
2021/11/04 01:42:32;;;;;;;23.58;20.88;;;10.00;99.90;;;;;;5015626;28;20532;-56
2021/11/04 01:44:59;;;;;;;25.70;22.90;;;10.10;99.90;;;;;;5014291;28;20210;-55
2021/11/04 01:47:27;;;;;;;27.08;17.30;;;10.00;99.90;;;;;;5020655;28;20253;-56
2021/11/04 01:49:54;;;;;;;20.02;15.15;;;10.10;99.90;;;;;;5020579;28;20280;-56
2021/11/04 01:52:22;;;;;;;28.40;17.85;;;10.10;99.90;;;;;;5012400;28;20214;-53
2021/11/04 01:54:50;;;;;;;26.17;14.63;;;10.10;99.90;;;;;;5020477;28;20206;-54
2021/11/04 01:57:17;;;;;;;24.75;19.83;;;10.10;99.90;;;;;;5009801;28;20440;-55
2021/11/04 01:59:44;;;;;;;26.10;18.55;;;10.00;99.90;;;;;;5011143;28;20269;-59
2021/11/04 02:02:21;;;;;;;27.30;18.08;;;10.00;99.90;;;;;;5004122;28;20203;-54
2021/11/04 02:04:54;;;;;;;18.92;17.00;;;10.10;99.90;;;;;;5009506;28;20253;-56
2021/11/04 02:07:48;;;;;;;25.75;16.38;;;10.00;99.90;;;;;;5007003;28;20213;-54
2021/11/04 02:10:25;;;;;;;20.42;14.52;;;10.00;99.90;;;;;;5022417;28;20228;-55
2021/11/04 02:13:08;;;;;;;23.65;13.43;;;10.00;99.90;;;;;;5020539;28;20237;-53
2021/11/04 02:15:37;;;;;;;22.33;17.48;;;9.90;99.90;;;;;;5008186;28;20205;-52
2021/11/04 02:18:08;;;;;;;16.17;12.40;;;9.90;99.90;;;;;;5002431;28;20591;-52
2021/11/04 02:20:58;;;;;;;23.90;17.60;;;9.90;99.90;;;;;;5006437;28;20241;-56
2021/11/04 02:23:34;;;;;;;22.23;14.77;;;9.90;99.90;;;;;;5016514;28;20247;-54
2021/11/04 02:26:04;;;;;;;17.48;14.18;;;10.00;99.90;;;;;;5008045;28;20198;-52
2021/11/04 02:28:34;;;;;;;20.98;15.02;;;9.90;99.90;;;;;;5015274;28;20221;-53
2021/11/04 02:31:03;;;;;;;17.17;13.88;;;9.90;99.90;;;;;;5006094;28;20198;-54
2021/11/04 02:33:30;;;;;;;23.83;14.82;;;9.90;99.90;;;;;;5015348;28;20237;-52
2021/11/04 02:35:59;;;;;;;18.02;15.40;;;9.80;99.90;;;;;;5011177;28;20201;-54
2021/11/04 02:38:30;;;;;;;18.85;16.13;;;9.80;99.90;;;;;;5009265;28;20372;-55
2021/11/04 02:41:00;;;;;;;25.92;18.30;;;9.80;99.90;;;;;;5012713;28;20249;-57
2021/11/04 02:43:30;;;;;;;29.40;21.25;;;9.90;99.90;;;;;;5009022;28;20378;-55
2021/11/04 02:45:59;;;;;;;34.25;20.80;;;9.80;99.90;;;;;;5012884;28;20211;-53
2021/11/04 02:48:28;;;;;;;33.50;21.60;;;9.80;99.90;;;;;;5014922;28;20460;-55
2021/11/04 02:50:56;;;;;;;32.65;21.60;;;9.80;99.90;;;;;;5020004;28;20214;-52
2021/11/04 02:53:28;;;;;;;25.27;19.95;;;9.80;99.90;;;;;;5008430;28;20252;-52
2021/11/04 02:55:57;;;;;;;20.00;17.90;;;9.80;99.90;;;;;;5003565;28;20206;-49
2021/11/04 02:58:25;;;;;;;26.27;18.85;;;9.80;99.90;;;;;;5018087;28;20228;-51
2021/11/04 03:00:56;;;;;;;24.83;17.23;;;9.80;99.90;;;;;;5020283;28;20400;-54
2021/11/04 03:03:24;;;;;;;23.63;16.90;;;9.70;99.90;;;;;;5011974;28;20220;-54
2021/11/04 03:05:52;;;;;;;22.17;17.08;;;9.80;99.90;;;;;;5014118;28;20206;-54
2021/11/04 03:08:19;;;;;;;26.70;21.05;;;9.80;99.90;;;;;;5035605;22;20260;-51
2021/11/04 03:10:46;;;;;;;30.73;21.48;;;9.80;99.90;;;;;;4982999;28;20260;-55
2021/11/04 03:13:13;;;;;;;32.22;23.55;;;9.80;99.90;;;;;;4981232;28;20207;-51
2021/11/04 03:15:45;;;;;;;31.98;26.42;;;9.90;99.90;;;;;;4981049;28;20403;-51
2021/11/04 03:18:13;;;;;;;35.28;27.30;;;9.80;99.90;;;;;;4980196;28;20215;-57
2021/11/04 03:20:41;;;;;;;36.47;26.70;;;9.90;99.90;;;;;;4999162;28;20203;-51
2021/11/04 03:23:09;;;;;;;34.83;27.00;;;9.90;99.90;;;;;;4994842;28;20202;-49
2021/11/04 03:25:37;;;;;;;40.72;27.92;;;9.80;99.90;;;;;;4996421;28;20557;-54
2021/11/04 03:28:05;;;;;;;36.92;25.33;;;9.80;99.90;;;;;;4990265;28;20203;-49
2021/11/04 03:30:36;;;;;;;34.95;27.95;;;9.90;99.90;;;;;;4995355;28;20206;-52
2021/11/04 03:33:07;;;;;;;35.65;28.48;;;9.90;99.90;;;;;;5003307;28;20203;-53
2021/11/04 03:35:37;;;;;;;35.42;25.45;;;9.90;99.90;;;;;;4995035;28;20230;-50
2021/11/04 03:38:10;;;;;;;36.67;26.13;;;9.90;99.90;;;;;;4992774;28;20230;-57
2021/11/04 03:40:38;;;;;;;37.97;27.02;;;9.90;99.90;;;;;;4994126;28;20265;-50
2021/11/04 03:43:06;;;;;;;33.75;27.60;;;9.90;99.90;;;;;;4996410;28;20197;-51
2021/11/04 03:45:35;;;;;;;37.67;27.65;;;9.90;99.90;;;;;;4983970;28;20195;-55
2021/11/04 03:48:05;;;;;;;29.65;23.05;;;10.00;99.90;;;;;;4986844;28;20452;-56
2021/11/04 03:50:33;;;;;;;31.08;25.42;;;9.90;99.90;;;;;;4994235;28;20548;-56
2021/11/04 03:53:01;;;;;;;31.70;25.52;;;10.00;99.90;;;;;;4993388;28;20238;-51
2021/11/04 03:55:31;;;;;;;35.83;25.05;;;10.00;99.90;;;;;;4992200;28;20219;-56
2021/11/04 03:57:59;;;;;;;22.60;19.30;;;10.00;99.90;;;;;;4988275;28;20457;-52
2021/11/04 04:00:27;;;;;;;28.33;23.05;;;10.00;99.90;;;;;;4995247;28;20209;-51
2021/11/04 04:02:55;;;;;;;23.05;19.00;;;10.00;99.90;;;;;;4989559;28;20215;-50
2021/11/04 04:05:32;;;;;;;33.45;25.38;;;10.00;99.90;;;;;;4995903;28;20509;-55
2021/11/04 04:08:00;;;;;;;26.40;22.00;;;10.00;99.90;;;;;;4999270;28;20573;-50
2021/11/04 04:10:31;;;;;;;23.80;20.98;;;10.10;99.90;;;;;;4992633;28;20215;-53
2021/11/04 04:13:01;;;;;;;28.67;19.60;;;10.00;99.90;;;;;;4992551;28;20260;-53
2021/11/04 04:15:28;;;;;;;25.08;16.83;;;10.10;99.90;;;;;;5003472;28;20254;-50
2021/11/04 04:17:56;;;;;;;26.70;19.00;;;10.10;99.90;;;;;;4991834;28;20470;-52
2021/11/04 04:20:25;;;;;;;27.27;19.02;;;10.10;99.90;;;;;;4997074;28;20271;-51
2021/11/04 04:22:52;;;;;;;23.45;16.85;;;10.00;99.90;;;;;;4987911;28;20204;-50
2021/11/04 04:25:20;;;;;;;26.00;17.45;;;10.00;99.90;;;;;;5003625;28;20502;-50
2021/11/04 04:27:47;;;;;;;23.13;16.73;;;10.00;99.90;;;;;;4995848;28;20258;-52
2021/11/04 04:30:14;;;;;;;21.83;17.20;;;10.10;99.90;;;;;;4993925;28;20565;-54
2021/11/04 04:32:41;;;;;;;20.15;18.00;;;10.10;99.90;;;;;;4995018;28;20202;-50
2021/11/04 04:35:08;;;;;;;20.88;16.00;;;10.10;99.90;;;;;;4999905;28;20237;-56
2021/11/04 04:37:36;;;;;;;23.27;15.75;;;10.00;99.90;;;;;;4992378;28;20604;-51
2021/11/04 04:40:03;;;;;;;18.60;16.60;;;10.00;99.90;;;;;;4993187;28;20228;-51
2021/11/04 04:42:30;;;;;;;18.65;15.48;;;10.00;99.90;;;;;;4989909;28;20490;-50
2021/11/04 04:44:57;;;;;;;19.05;16.02;;;10.00;99.90;;;;;;4993078;28;20586;-52
2021/11/04 04:47:25;;;;;;;21.88;16.30;;;10.10;99.90;;;;;;4993192;28;20259;-55
2021/11/04 04:49:58;;;;;;;19.63;16.52;;;10.10;99.90;;;;;;4992465;28;20229;-56
2021/11/04 04:52:27;;;;;;;18.00;15.38;;;10.00;99.90;;;;;;4997176;28;20401;-50
2021/11/04 04:54:57;;;;;;;23.38;16.70;;;10.00;99.90;;;;;;4994844;28;20207;-56
2021/11/04 04:57:24;;;;;;;20.20;16.13;;;10.00;99.90;;;;;;4993342;28;20237;-56
2021/11/04 04:59:55;;;;;;;20.45;16.33;;;10.00;99.90;;;;;;4989493;28;20231;-54
2021/11/04 05:02:24;;;;;;;21.13;15.88;;;10.00;99.90;;;;;;5001445;28;20264;-54
2021/11/04 05:04:52;;;;;;;21.02;15.32;;;10.00;99.90;;;;;;4999964;28;20194;-58
2021/11/04 05:07:20;;;;;;;19.98;15.52;;;10.10;99.90;;;;;;5000228;28;20207;-60
2021/11/04 05:09:47;;;;;;;21.15;14.95;;;10.10;99.90;;;;;;5006490;28;20235;-57
2021/11/04 05:12:14;;;;;;;25.27;16.50;;;10.10;99.90;;;;;;4998919;28;20540;-57
2021/11/04 05:14:41;;;;;;;25.38;18.02;;;10.10;99.90;;;;;;5006501;28;20231;-55
2021/11/04 05:17:09;;;;;;;22.92;16.45;;;10.10;99.90;;;;;;4989828;28;20257;-54
2021/11/04 05:19:36;;;;;;;16.90;14.73;;;10.10;99.90;;;;;;4992861;28;20230;-55
2021/11/04 05:22:03;;;;;;;22.25;15.85;;;10.10;99.90;;;;;;5001944;28;20199;-51
2021/11/04 05:24:34;;;;;;;22.52;14.50;;;10.10;99.90;;;;;;4985945;28;20215;-54
2021/11/04 05:27:03;;;;;;;17.10;15.00;;;10.20;99.90;;;;;;4989485;28;20200;-53
2021/11/04 05:29:30;;;;;;;13.60;11.63;;;10.10;99.90;;;;;;4989952;28;20281;-50
2021/11/04 05:32:06;;;;;;;16.10;12.00;;;10.10;99.90;;;;;;4988435;28;20230;-53
2021/11/04 05:34:39;;;;;;;16.30;10.98;;;10.00;99.90;;;;;;4999070;28;20568;-52
2021/11/04 05:37:08;;;;;;;17.77;11.00;;;10.10;99.90;;;;;;4999293;28;20199;-51
2021/11/04 05:39:36;;;;;;;15.38;10.93;;;10.20;99.90;;;;;;4996746;28;20277;-52
2021/11/04 05:42:04;;;;;;;18.77;12.52;;;10.10;99.90;;;;;;4997073;28;20210;-53
2021/11/04 05:44:35;;;;;;;18.73;10.77;;;10.20;99.90;;;;;;4997472;28;20517;-54
2021/11/04 05:47:05;;;;;;;12.32;11.00;;;10.10;99.90;;;;;;5004096;28;20402;-56
2021/11/04 05:49:38;;;;;;;13.15;11.85;;;10.10;99.90;;;;;;4990281;28;20260;-51
2021/11/04 05:52:05;;;;;;;14.10;12.60;;;10.10;99.90;;;;;;4987723;28;20201;-52
2021/11/04 05:54:33;;;;;;;12.75;10.95;;;10.10;99.90;;;;;;4990409;28;20240;-57
2021/11/04 05:57:00;;;;;;;20.02;11.60;;;10.10;99.90;;;;;;4993353;28;20198;-50
2021/11/04 05:59:28;;;;;;;15.07;12.30;;;10.20;99.90;;;;;;4990051;28;20223;-52
2021/11/04 06:01:55;;;;;;;14.00;12.35;;;10.20;99.90;;;;;;4993729;28;20198;-53
2021/11/04 06:04:24;;;;;;;16.00;13.05;;;10.20;99.90;;;;;;4990996;28;20276;-57
2021/11/04 06:06:51;;;;;;;20.13;12.23;;;10.20;99.90;;;;;;4998674;28;20261;-51
2021/11/04 06:09:19;;;;;;;18.52;13.45;;;10.20;99.90;;;;;;5002413;28;20267;-51
2021/11/04 06:11:46;;;;;;;15.65;11.75;;;10.20;99.90;;;;;;4987704;28;20370;-54
2021/11/04 06:14:13;;;;;;;17.15;13.15;;;10.20;99.90;;;;;;4998240;28;20202;-53
2021/11/04 06:16:40;;;;;;;17.00;12.00;;;10.20;99.90;;;;;;4983507;28;20252;-57
2021/11/04 06:19:08;;;;;;;13.60;11.70;;;10.30;99.90;;;;;;5001353;28;20226;-50
2021/11/04 06:21:35;;;;;;;19.02;12.93;;;10.20;99.90;;;;;;5000647;28;20201;-53
2021/11/04 06:24:03;;;;;;;17.92;12.38;;;10.30;99.90;;;;;;4988211;28;20202;-51
2021/11/04 06:26:30;;;;;;;16.73;12.00;;;10.30;99.90;;;;;;4997810;28;20202;-54
2021/11/04 06:28:57;;;;;;;18.33;13.35;;;10.30;99.90;;;;;;5001870;28;20293;-56
2021/11/04 06:31:25;;;;;;;19.27;13.00;;;10.40;99.90;;;;;;4998688;28;20219;-51
2021/11/04 06:33:55;;;;;;;19.65;12.35;;;10.40;99.90;;;;;;4992677;28;20230;-57
2021/11/04 06:36:24;;;;;;;16.83;12.25;;;10.40;99.90;;;;;;4994644;28;20209;-53
2021/11/04 06:38:51;;;;;;;23.67;12.43;;;10.30;99.90;;;;;;4989999;28;20246;-50
2021/11/04 06:41:19;;;;;;;16.90;13.75;;;10.40;99.90;;;;;;4990047;28;20204;-55
2021/11/04 06:43:46;;;;;;;13.18;11.18;;;10.40;99.90;;;;;;4988888;28;20206;-54
2021/11/04 06:46:15;;;;;;;13.63;11.40;;;10.40;99.90;;;;;;4997478;28;20437;-52
2021/11/04 06:48:44;;;;;;;14.98;11.90;;;10.50;99.90;;;;;;4992922;28;20220;-51
2021/11/04 06:51:14;;;;;;;17.00;14.52;;;10.60;99.90;;;;;;4994126;28;20219;-55
2021/11/04 06:53:45;;;;;;;16.63;13.05;;;10.60;99.90;;;;;;4991072;28;20218;-51
2021/11/04 06:56:13;;;;;;;13.52;12.32;;;10.60;99.90;;;;;;4998889;28;20467;-53
2021/11/04 06:58:46;;;;;;;18.08;14.40;;;10.60;99.90;;;;;;4990684;28;20243;-54
2021/11/04 07:01:19;;;;;;;19.42;15.23;;;10.70;99.90;;;;;;5001442;28;20203;-50
2021/11/04 07:03:56;;;;;;;15.40;13.50;;;10.70;99.90;;;;;;4989078;28;20218;-51
2021/11/04 07:06:25;;;;;;;22.23;16.45;;;10.80;99.90;;;;;;4992200;28;20241;-51
2021/11/04 07:08:55;;;;;;;15.13;13.55;;;10.80;99.90;;;;;;4996765;28;20240;-59
2021/11/04 07:11:24;;;;;;;16.05;14.07;;;10.90;99.90;;;;;;4989242;28;20254;-59
2021/11/04 07:13:52;;;;;;;17.98;15.63;;;11.00;99.90;;;;;;4993888;28;20250;-56
2021/11/04 07:16:22;;;;;;;17.58;13.73;;;11.00;99.90;;;;;;4992614;28;20206;-56
2021/11/04 07:18:52;;;;;;;15.82;12.43;;;11.10;99.90;;;;;;4991717;28;20329;-54
2021/11/04 07:21:34;;;;;;;16.13;10.98;;;11.10;99.90;;;;;;5004480;28;20215;-55
2021/11/04 07:24:05;;;;;;;9.82;8.82;;;11.10;99.90;;;;;;5003793;28;20567;-52
2021/11/04 07:26:47;;;;;;;12.85;8.23;;;10.90;99.90;;;;;;4994948;28;20384;-51
2021/11/04 07:29:17;;;;;;;11.50;10.13;;;10.70;99.90;;;;;;5003518;28;20512;-57
2021/11/04 07:31:46;;;;;;;11.85;9.73;;;10.70;99.90;;;;;;5003783;28;20208;-56
2021/11/04 07:34:18;;;;;;;12.13;9.43;;;10.60;99.90;;;;;;4995927;28;20204;-54
2021/11/04 07:36:46;;;;;;;17.83;11.35;;;10.60;99.90;;;;;;4996781;28;20346;-55
2021/11/04 07:39:14;;;;;;;15.00;11.30;;;10.60;99.90;;;;;;4998871;28;20235;-54
2021/11/04 07:41:41;;;;;;;16.45;12.70;;;10.50;99.90;;;;;;4995541;28;20203;-54
2021/11/04 07:44:09;;;;;;;13.90;11.38;;;10.40;99.90;;;;;;5001639;28;20250;-49
2021/11/04 07:46:36;;;;;;;12.88;10.20;;;10.30;99.90;;;;;;5003897;28;20198;-50
2021/11/04 07:49:03;;;;;;;11.98;9.70;;;10.30;99.90;;;;;;4997092;28;20235;-54
2021/11/04 07:51:31;;;;;;;11.80;10.60;;;10.30;99.90;;;;;;4995417;28;20249;-53
2021/11/04 07:53:58;;;;;;;13.93;11.23;;;10.30;99.90;;;;;;5005742;28;20206;-50
2021/11/04 07:56:26;;;;;;;13.20;11.85;;;10.30;99.90;;;;;;4996389;28;20206;-51
2021/11/04 07:58:53;;;;;;;12.82;11.18;;;10.30;99.90;;;;;;4987280;28;20235;-49
2021/11/04 08:01:21;;;;;;;12.35;10.02;;;10.30;99.90;;;;;;4998187;28;20205;-52
2021/11/04 08:03:48;;;;;;;13.40;10.50;;;10.30;99.90;;;;;;4997080;28;20203;-51
2021/11/04 08:06:16;;;;;;;12.77;10.95;;;10.30;99.90;;;;;;4993526;28;20251;-53
2021/11/04 08:08:43;;;;;;;15.50;11.02;;;10.20;99.90;;;;;;5007731;28;20300;-48
2021/11/04 08:11:10;;;;;;;14.07;11.00;;;10.30;99.90;;;;;;4988143;28;20269;-51
2021/11/04 08:13:37;;;;;;;15.32;12.07;;;10.40;99.90;;;;;;4997410;28;20495;-49
2021/11/04 08:16:05;;;;;;;13.52;11.65;;;10.40;99.90;;;;;;4992363;28;20208;-51
2021/11/04 08:18:33;;;;;;;14.20;11.07;;;10.40;99.90;;;;;;4989959;28;20278;-53
2021/11/04 08:21:01;;;;;;;14.02;12.52;;;10.40;99.90;;;;;;5001239;28;20199;-54
2021/11/04 08:23:29;;;;;;;14.60;12.63;;;10.50;99.90;;;;;;4998857;28;20277;-54
2021/11/04 08:25:56;;;;;;;16.67;12.68;;;10.60;99.90;;;;;;5005912;28;20222;-56
2021/11/04 08:28:23;;;;;;;14.63;11.52;;;10.60;99.90;;;;;;5007593;28;20274;-57
2021/11/04 08:30:50;;;;;;;14.70;11.73;;;10.70;99.90;;;;;;5002716;28;20208;-51
2021/11/04 08:33:18;;;;;;;15.90;13.00;;;10.70;99.90;;;;;;5004290;28;20514;-52
2021/11/04 08:35:45;;;;;;;16.90;14.10;;;10.80;99.90;;;;;;5001719;28;20278;-51
2021/11/04 08:38:12;;;;;;;16.88;13.38;;;10.80;99.90;;;;;;4999916;28;20224;-54
2021/11/04 08:40:39;;;;;;;17.00;13.15;;;10.80;99.90;;;;;;4996763;28;20380;-52
2021/11/04 08:43:07;;;;;;;18.60;15.45;;;10.80;99.90;;;;;;4992248;28;20425;-52
2021/11/04 08:45:34;;;;;;;21.00;14.93;;;10.80;99.90;;;;;;4995149;28;20248;-57
2021/11/04 08:48:02;;;;;;;24.10;18.55;;;10.80;99.90;;;;;;5002603;28;20547;-53
2021/11/04 08:50:30;;;;;;;23.55;16.98;;;10.90;99.90;;;;;;5004209;28;20593;-52
2021/11/04 08:52:57;;;;;;;21.17;16.75;;;11.00;99.90;;;;;;4996603;28;20234;-50
2021/11/04 08:55:24;;;;;;;22.83;17.40;;;11.00;99.90;;;;;;5002478;28;20207;-53
2021/11/04 08:57:53;;;;;;;27.65;18.20;;;11.10;99.90;;;;;;5005755;28;20262;-50
2021/11/04 09:00:21;;;;;;;24.00;19.23;;;11.30;99.90;;;;;;5000236;28;20220;-54
2021/11/04 09:02:49;;;;;;;26.58;19.30;;;11.30;99.90;;;;;;4994814;28;20251;-51
2021/11/04 09:05:16;;;;;;;21.55;18.83;;;11.30;99.90;;;;;;4993452;28;20200;-53
2021/11/04 09:07:44;;;;;;;27.65;20.70;;;11.30;99.90;;;;;;4994834;28;20201;-56
2021/11/04 09:10:13;;;;;;;24.67;19.75;;;11.30;99.90;;;;;;5045023;23;20567;-61
2021/11/04 09:12:41;;;;;;;26.75;21.10;;;11.40;99.90;;;;;;5035230;28;20225;-54
2021/11/04 09:15:10;;;;;;;23.10;18.00;;;11.40;99.90;;;;;;5031596;28;20270;-58
2021/11/04 09:17:39;;;;;;;23.00;18.20;;;11.50;99.90;;;;;;5028374;28;20298;-58
2021/11/04 09:20:09;;;;;;;27.63;19.92;;;11.40;99.90;;;;;;5028082;28;20235;-60
2021/11/04 09:22:44;;;;;;;26.30;18.85;;;11.40;99.90;;;;;;5028385;28;20256;-55
2021/11/04 09:25:12;;;;;;;30.55;21.27;;;11.40;99.90;;;;;;5026531;28;20219;-53
2021/11/04 09:27:40;;;;;;;23.38;19.88;;;11.40;99.90;;;;;;5031244;28;20321;-52
2021/11/04 09:30:07;;;;;;;32.88;22.70;;;11.40;99.90;;;;;;5031353;28;20233;-54
2021/11/04 09:32:35;;;;;;;32.13;17.17;;;11.50;99.90;;;;;;5027788;28;20208;-54
2021/11/04 09:35:03;;;;;;;20.75;17.92;;;11.50;99.90;;;;;;5030358;28;20496;-55
2021/11/04 09:37:30;;;;;;;17.88;13.45;;;11.50;99.90;;;;;;5008230;28;20578;-56
2021/11/04 09:39:57;;;;;;;16.98;13.05;;;11.50;99.90;;;;;;5031164;28;20450;-52
2021/11/04 09:42:25;;;;;;;17.77;13.25;;;11.60;99.90;;;;;;5023080;28;20267;-58
2021/11/04 09:44:54;;;;;;;11.95;10.38;;;11.70;99.90;;;;;;5031272;28;20207;-52
2021/11/04 09:47:27;;;;;;;19.85;14.15;;;11.80;99.90;;;;;;5029113;28;20376;-53
2021/11/04 09:49:59;;;;;;;12.65;8.60;;;11.90;99.90;;;;;;5027480;28;20222;-59
2021/11/04 09:52:28;;;;;;;13.60;10.02;;;12.00;99.90;;;;;;5027689;28;20207;-56
2021/11/04 09:55:02;;;;;;;18.15;12.60;;;12.00;99.90;;;;;;5026680;28;20535;-57
2021/11/04 09:57:29;;;;;;;20.48;12.00;;;12.10;99.90;;;;;;5027886;28;20231;-51
2021/11/04 09:59:58;;;;;;;15.32;11.27;;;12.10;99.90;;;;;;5026030;28;20352;-56
2021/11/04 10:02:28;;;;;;;15.65;10.30;;;12.10;99.90;;;;;;5027242;28;20380;-57
2021/11/04 10:05:06;;;;;;;12.27;10.20;;;12.10;99.90;;;;;;5030995;28;20460;-55
2021/11/04 10:07:41;;;;;;;12.43;10.27;;;12.10;99.90;;;;;;5024759;28;20265;-51
2021/11/04 10:10:10;;;;;;;13.32;11.00;;;12.00;99.90;;;;;;5027796;28;20230;-54
2021/11/04 10:12:56;;;;;;;13.65;10.75;;;12.00;99.90;;;;;;5024064;28;20213;-53
2021/11/04 10:15:24;;;;;;;22.63;13.43;;;12.10;99.90;;;;;;5026183;28;20393;-54
2021/11/04 10:17:51;;;;;;;16.60;11.90;;;12.10;99.90;;;;;;5022952;28;20522;-54
2021/11/04 10:20:21;;;;;;;17.60;11.82;;;12.10;99.90;;;;;;5027680;28;20305;-58
2021/11/04 10:23:05;;;;;;;15.88;10.60;;;12.10;99.90;;;;;;5026317;28;20226;-55
2021/11/04 10:25:34;;;;;;;11.05;9.50;;;12.30;99.90;;;;;;5028721;28;20207;-54
2021/11/04 10:28:21;;;;;;;18.58;12.75;;;12.30;99.90;;;;;;5029044;28;20471;-56
2021/11/04 10:30:48;;;;;;;17.50;11.80;;;12.40;99.90;;;;;;5031801;28;20239;-50
2021/11/04 10:33:23;;;;;;;10.68;8.55;;;12.50;99.90;;;;;;5026395;28;20457;-54
2021/11/04 10:36:17;;;;;;;12.40;10.52;;;12.60;99.90;;;;;;5029200;28;20208;-54
2021/11/04 10:38:59;;;;;;;17.60;13.70;;;12.70;99.90;;;;;;5032341;28;20254;-53
2021/11/04 10:41:34;;;;;;;19.23;11.25;;;12.90;99.90;;;;;;5027716;28;20218;-57
2021/11/04 10:44:09;;;;;;;12.80;10.68;;;13.30;99.90;;;;;;5024276;28;20433;-55
2021/11/04 10:46:41;;;;;;;15.70;11.07;;;13.60;99.90;;;;;;5030837;28;20217;-52
2021/11/04 10:49:08;;;;;;;15.15;9.50;;;13.80;99.90;;;;;;5024505;28;20402;-55
2021/11/04 10:51:36;;;;;;;17.13;11.15;;;13.90;99.90;;;;;;5028295;28;20246;-52
2021/11/04 10:54:07;;;;;;;18.27;11.32;;;13.90;99.90;;;;;;5024259;28;20255;-54
2021/11/04 10:56:40;;;;;;;8.60;7.78;;;13.80;99.90;;;;;;5030304;28;20254;-52
2021/11/04 10:59:10;;;;;;;17.33;12.13;;;13.70;99.90;;;;;;5022890;28;20235;-54
2021/11/04 11:01:47;;;;;;;15.35;9.80;;;13.60;99.90;;;;;;5028386;28;20400;-52
2021/11/04 11:04:20;;;;;;;9.52;7.88;;;13.70;99.90;;;;;;5040757;28;20209;-59
2021/11/04 11:06:52;;;;;;;16.52;9.40;;;13.80;99.90;;;;;;5028987;28;20203;-56
2021/11/04 11:09:26;;;;;;;19.75;9.48;;;13.90;99.90;;;;;;5031909;28;20240;-58
2021/11/04 11:11:57;;;;;;;13.35;9.00;;;13.90;99.90;;;;;;5020428;28;20506;-56
2021/11/04 11:14:29;;;;;;;10.13;8.00;;;14.00;99.90;;;;;;5029802;28;20205;-52
2021/11/04 11:17:02;;;;;;;13.15;8.23;;;14.20;99.90;;;;;;5032919;28;20510;-57
2021/11/04 11:19:32;;;;;;;8.82;6.20;;;14.30;99.90;;;;;;5035103;28;20277;-55
2021/11/04 11:22:00;;;;;;;11.68;7.82;;;14.30;99.90;;;;;;5042501;28;20196;-53
2021/11/04 11:24:37;;;;;;;12.50;8.75;;;14.50;99.90;;;;;;5034641;28;20271;-56
2021/11/04 11:27:08;;;;;;;15.75;8.52;;;14.80;99.90;;;;;;5031080;28;20200;-57
2021/11/04 11:29:38;;;;;;;13.63;7.30;;;15.30;99.90;;;;;;5034924;28;20212;-56
2021/11/04 11:32:19;;;;;;;6.82;6.18;;;15.50;99.90;;;;;;5028126;28;20267;-52
2021/11/04 11:34:46;;;;;;;12.00;9.20;;;15.50;99.90;;;;;;5033750;28;20227;-55
2021/11/04 11:37:17;;;;;;;7.53;6.82;;;15.50;99.90;;;;;;5030991;28;20458;-53
2021/11/04 11:40:11;;;;;;;9.20;6.00;;;15.40;99.90;;;;;;5030346;28;20224;-53
2021/11/04 11:42:53;;;;;;;7.68;6.30;;;15.40;99.90;;;;;;5027016;28;20213;-55
2021/11/04 11:45:20;;;;;;;10.10;6.45;;;15.20;99.90;;;;;;5039333;28;20292;-54
2021/11/04 11:47:48;;;;;;;8.40;6.20;;;15.10;99.90;;;;;;5034307;28;20565;-52
2021/11/04 11:50:31;;;;;;;6.40;5.72;;;14.90;99.90;;;;;;5029558;28;20303;-55
2021/11/04 11:53:04;;;;;;;3.83;3.05;;;14.80;99.90;;;;;;5036406;28;20270;-54
2021/11/04 11:55:41;;;;;;;4.82;2.28;;;14.60;99.90;;;;;;5027881;28;20251;-54
2021/11/04 12:00:55;;;;;;;1.40;1.30;;;14.10;99.90;;;;;;5027047;28;20220;-57
2021/11/04 12:03:38;;;;;;;1.02;1.00;;;14.20;99.90;;;;;;5033780;28;20238;-51
2021/11/04 12:06:13;;;;;;;1.35;1.15;;;14.30;99.90;;;;;;5026416;28;20412;-50
2021/11/04 12:08:50;;;;;;;1.10;0.90;;;14.60;99.90;;;;;;5032328;28;20261;-53
2021/11/04 12:11:42;;;;;;;1.85;1.70;;;14.80;99.90;;;;;;5026265;28;20433;-55
2021/11/04 12:14:18;;;;;;;1.55;1.45;;;15.20;99.90;;;;;;5029657;28;20197;-57
2021/11/04 12:17:05;;;;;;;1.85;1.50;;;15.20;99.90;;;;;;5024977;28;20243;-55
2021/11/04 12:19:32;;;;;;;1.73;1.63;;;14.90;99.90;;;;;;5033838;28;20255;-53
2021/11/04 12:21:59;;;;;;;1.13;1.02;;;14.50;99.90;;;;;;5031917;28;20266;-57
2021/11/04 12:24:26;;;;;;;1.58;1.30;;;14.20;99.90;;;;;;5026297;28;20215;-54
2021/11/04 12:26:54;;;;;;;2.08;1.17;;;14.00;99.90;;;;;;5034541;28;20204;-58
2021/11/04 12:29:25;;;;;;;1.42;1.33;;;13.80;99.90;;;;;;5032661;28;20522;-55
2021/11/04 12:31:53;;;;;;;2.30;1.45;;;13.60;99.90;;;;;;5029172;28;20255;-54
2021/11/04 12:34:22;;;;;;;3.35;1.40;;;13.40;99.90;;;;;;5026155;28;20304;-56
2021/11/04 12:36:51;;;;;;;1.25;1.15;;;13.20;99.90;;;;;;5028299;28;20431;-55
2021/11/04 12:39:26;;;;;;;1.13;1.02;;;13.10;99.90;;;;;;5029369;28;20243;-51
2021/11/04 12:41:59;;;;;;;2.20;2.00;;;13.00;99.90;;;;;;5027405;28;20515;-60
2021/11/04 12:44:34;;;;;;;1.13;1.08;;;12.90;99.90;;;;;;5029228;28;20204;-53
2021/11/04 12:47:06;;;;;;;1.50;1.40;;;12.90;99.90;;;;;;5032897;28;20245;-58